PWSweather.com
Personal Weather Stations
Station Observations
TARRYHILL
Tarrytown, NY 10591

Tarrytown, NY 10591

Lat: 41.05185, Lon: -73.85296

Elevation: 341

Station Type: Davis Vantage Vue

www.tarrytownnyweather.com

High Low Average
Temperature 87.8°F31.0°F 67.3°F19.6°F 76.3°F24.6°F
Dew Point 70.5°F21.4°F 59.0°F15.0°F 65.1°F18.4°F
Winds 6.9 mph SW11.1 mph SW Calm Calm 1.2 mph 1.9 mph
Wind Gusts 9.2 mph14.8 mph -- 2.4 mph3.9 mph
Humidity 95% 45% 70%
Pressure 30.28 in1025.40 in 30.14 in1020.70 in -
Precipitation 0.00 in0.00 in - -
Hour Temp Dew Point Humidity Winds Wind Gusts Pressure Precip Precip Rate Daily Precip Total
12:00 AM 71.1°F21.7°C 59.2°F15.1°C 66% Calm Calm -- 30.23 in1023.7 mb - 0.00 in0.0 mm 0.00 in0.0 mm
12:10 AM 70.6°F21.4°C 59.5°F15.3°C 68% Calm Calm -- 30.22 in1023.4 mb - 0.00 in0.0 mm 0.00 in0.0 mm
12:20 AM 70.0°F21.1°C 59.0°F15.0°C 68% Calm Calm -- 30.23 in1023.7 mb - 0.00 in0.0 mm 0.00 in0.0 mm
12:30 AM 69.8°F21.0°C 59.2°F15.1°C 69% Calm Calm -- 30.23 in1023.7 mb - 0.00 in0.0 mm 0.00 in0.0 mm
12:40 AM 69.3°F20.7°C 59.5°F15.3°C 71% Calm Calm -- 30.23 in1023.7 mb - 0.00 in0.0 mm 0.00 in0.0 mm
12:50 AM 68.8°F20.4°C 60.2°F15.7°C 74% Calm Calm -- 30.23 in1023.7 mb - 0.00 in0.0 mm 0.00 in0.0 mm
01:00 AM 68.3°F20.2°C 60.1°F15.6°C 75% Calm Calm -- 30.23 in1023.7 mb - 0.00 in0.0 mm 0.00 in0.0 mm
01:10 AM 68.1°F20.1°C 60.2°F15.7°C 76% Calm Calm -- 30.23 in1023.7 mb - 0.00 in0.0 mm 0.00 in0.0 mm
01:20 AM 67.9°F19.9°C 60.4°F15.8°C 77% Calm Calm -- 30.23 in1023.7 mb - 0.00 in0.0 mm 0.00 in0.0 mm
01:30 AM 67.8°F19.9°C 60.3°F15.7°C 77% Calm Calm -- 30.22 in1023.4 mb - 0.00 in0.0 mm 0.00 in0.0 mm
01:40 AM 69.3°F20.7°C 59.5°F15.3°C 71% Calm Calm -- 30.22 in1023.4 mb - 0.00 in0.0 mm 0.00 in0.0 mm
01:50 AM 70.3°F21.3°C 60.8°F16.0°C 72% Calm Calm 1.2 mph1.9 kmh 30.21 in1023.0 mb - 0.00 in0.0 mm 0.00 in0.0 mm
02:00 AM 70.4°F21.3°C 61.7°F16.5°C 74% Calm Calm -- 30.21 in1023.0 mb - 0.00 in0.0 mm 0.00 in0.0 mm
02:10 AM 70.3°F21.3°C 62.4°F16.9°C 76% Calm Calm -- 30.22 in1023.4 mb - 0.00 in0.0 mm 0.00 in0.0 mm
02:20 AM 70.2°F21.2°C 62.6°F17.0°C 77% Calm Calm -- 30.21 in1023.0 mb - 0.00 in0.0 mm 0.00 in0.0 mm
02:30 AM 70.1°F21.2°C 63.6°F17.6°C 80% Calm Calm 1.2 mph1.9 kmh 30.21 in1023.0 mb - 0.00 in0.0 mm 0.00 in0.0 mm
02:40 AM 69.9°F21.1°C 63.8°F17.7°C 81% Calm Calm -- 30.21 in1023.0 mb - 0.00 in0.0 mm 0.00 in0.0 mm
02:50 AM 69.6°F20.9°C 63.8°F17.7°C 82% Calm Calm -- 30.21 in1023.0 mb - 0.00 in0.0 mm 0.00 in0.0 mm
03:00 AM 69.4°F20.8°C 64.0°F17.8°C 83% Calm Calm -- 30.21 in1023.0 mb - 0.00 in0.0 mm 0.00 in0.0 mm
03:10 AM 69.2°F20.7°C 64.5°F18.1°C 85% Calm Calm -- 30.21 in1023.0 mb - 0.00 in0.0 mm 0.00 in0.0 mm
03:20 AM 69.1°F20.6°C 64.4°F18.0°C 85% Calm Calm -- 30.21 in1023.0 mb - 0.00 in0.0 mm 0.00 in0.0 mm
03:30 AM 68.8°F20.4°C 64.4°F18.0°C 86% Calm Calm -- 30.21 in1023.0 mb - 0.00 in0.0 mm 0.00 in0.0 mm
03:40 AM 68.7°F20.4°C 64.3°F17.9°C 86% Calm Calm -- 30.21 in1023.0 mb - 0.00 in0.0 mm 0.00 in0.0 mm
03:50 AM 68.4°F20.2°C 64.0°F17.8°C 86% Calm Calm -- 30.22 in1023.4 mb - 0.00 in0.0 mm 0.00 in0.0 mm
04:00 AM 68.0°F20.0°C 64.0°F17.8°C 87% Calm Calm -- 30.22 in1023.4 mb - 0.00 in0.0 mm 0.00 in0.0 mm
04:10 AM 67.5°F19.7°C 63.8°F17.7°C 88% Calm Calm 1.2 mph1.9 kmh 30.22 in1023.4 mb - 0.00 in0.0 mm 0.00 in0.0 mm
04:20 AM 67.8°F19.9°C 64.1°F17.8°C 88% Calm Calm -- 30.22 in1023.4 mb - 0.00 in0.0 mm 0.00 in0.0 mm
04:30 AM 67.7°F19.8°C 64.0°F17.8°C 88% Calm Calm -- 30.22 in1023.4 mb - 0.00 in0.0 mm 0.00 in0.0 mm
04:40 AM 67.7°F19.8°C 64.3°F17.9°C 89% Calm Calm -- 30.23 in1023.7 mb - 0.00 in0.0 mm 0.00 in0.0 mm
04:50 AM 67.5°F19.7°C 64.1°F17.8°C 89% Calm Calm -- 30.23 in1023.7 mb - 0.00 in0.0 mm 0.00 in0.0 mm
05:00 AM 67.3°F19.6°C 64.3°F17.9°C 90% Calm Calm -- 30.23 in1023.7 mb - 0.00 in0.0 mm 0.00 in0.0 mm
05:10 AM 67.7°F19.8°C 64.9°F18.3°C 91% Calm Calm 1.2 mph1.9 kmh 30.24 in1024.0 mb - 0.00 in0.0 mm 0.00 in0.0 mm
05:20 AM 67.9°F19.9°C 64.9°F18.3°C 90% Calm Calm -- 30.23 in1023.7 mb - 0.00 in0.0 mm 0.00 in0.0 mm
05:30 AM 67.7°F19.8°C 65.0°F18.3°C 91% Calm Calm -- 30.24 in1024.0 mb - 0.00 in0.0 mm 0.00 in0.0 mm
05:40 AM 68.1°F20.1°C 65.7°F18.7°C 92% Calm Calm -- 30.25 in1024.4 mb - 0.00 in0.0 mm 0.00 in0.0 mm
05:50 AM 68.1°F20.1°C 65.7°F18.7°C 92% Calm Calm -- 30.25 in1024.4 mb - 0.00 in0.0 mm 0.00 in0.0 mm
06:00 AM 68.1°F20.1°C 66.0°F18.9°C 93% Calm Calm -- 30.25 in1024.4 mb - 0.00 in0.0 mm 0.00 in0.0 mm
06:10 AM 68.1°F20.1°C 66.0°F18.9°C 93% Calm Calm -- 30.25 in1024.4 mb - 0.00 in0.0 mm 0.00 in0.0 mm
06:20 AM 68.1°F20.1°C 66.0°F18.9°C 93% Calm Calm -- 30.25 in1024.4 mb - 0.00 in0.0 mm 0.00 in0.0 mm
06:30 AM 68.2°F20.1°C 66.4°F19.1°C 94% Calm Calm -- 30.26 in1024.7 mb - 0.00 in0.0 mm 0.00 in0.0 mm
06:40 AM 68.3°F20.2°C 66.5°F19.2°C 94% Calm Calm -- 30.26 in1024.7 mb - 0.00 in0.0 mm 0.00 in0.0 mm
06:50 AM 68.4°F20.2°C 66.9°F19.4°C 95% Calm Calm -- 30.26 in1024.7 mb - 0.00 in0.0 mm 0.00 in0.0 mm
07:00 AM 68.6°F20.3°C 67.1°F19.5°C 95% Calm Calm -- 30.26 in1024.7 mb - 0.00 in0.0 mm 0.00 in0.0 mm
07:10 AM 68.7°F20.4°C 67.2°F19.6°C 95% Calm Calm -- 30.26 in1024.7 mb - 0.00 in0.0 mm 0.00 in0.0 mm
07:20 AM 68.8°F20.4°C 67.3°F19.6°C 95% Calm Calm -- 30.27 in1025.1 mb - 0.00 in0.0 mm 0.00 in0.0 mm
07:30 AM 69.1°F20.6°C 67.6°F19.8°C 95% Calm Calm -- 30.27 in1025.1 mb - 0.00 in0.0 mm 0.00 in0.0 mm
07:40 AM 69.2°F20.7°C 67.7°F19.8°C 95% Calm Calm -- 30.27 in1025.1 mb - 0.00 in0.0 mm 0.00 in0.0 mm
07:50 AM 69.5°F20.8°C 68.0°F20.0°C 95% Calm Calm 1.2 mph1.9 kmh 30.27 in1025.1 mb - 0.00 in0.0 mm 0.00 in0.0 mm
08:00 AM 69.9°F21.1°C 68.4°F20.2°C 95% Calm Calm 1.2 mph1.9 kmh 30.27 in1025.1 mb - 0.00 in0.0 mm 0.00 in0.0 mm
08:10 AM 70.4°F21.3°C 68.6°F20.3°C 94% Calm Calm -- 30.27 in1025.1 mb - 0.00 in0.0 mm 0.00 in0.0 mm
08:20 AM 70.8°F21.6°C 68.7°F20.4°C 93% Calm Calm 1.2 mph1.9 kmh 30.27 in1025.1 mb - 0.00 in0.0 mm 0.00 in0.0 mm
08:30 AM 71.5°F21.9°C 69.1°F20.6°C 92% Calm Calm -- 30.27 in1025.1 mb - 0.00 in0.0 mm 0.00 in0.0 mm
08:40 AM 73.4°F23.0°C 70.3°F21.3°C 90% Calm Calm -- 30.27 in1025.1 mb - 0.00 in0.0 mm 0.00 in0.0 mm
08:50 AM 74.7°F23.7°C 69.9°F21.1°C 85% Calm Calm -- 30.27 in1025.1 mb - 0.00 in0.0 mm 0.00 in0.0 mm
09:00 AM 75.5°F24.2°C 69.3°F20.7°C 81% Calm Calm -- 30.27 in1025.1 mb - 0.00 in0.0 mm 0.00 in0.0 mm
09:10 AM 76.4°F24.7°C 68.7°F20.4°C 77% 1.2 mph E1.9 kmh E 2.3 mph3.7 kmh 30.27 in1025.1 mb - 0.00 in0.0 mm 0.00 in0.0 mm
09:20 AM 77.1°F25.1°C 68.5°F20.3°C 75% 2.3 mph SW3.7 kmh SW 5.8 mph9.3 kmh 30.27 in1025.1 mb - 0.00 in0.0 mm 0.00 in0.0 mm
09:30 AM 77.6°F25.3°C 68.2°F20.1°C 73% 2.3 mph SSE3.7 kmh SSE 2.3 mph3.7 kmh 30.28 in1025.4 mb - 0.00 in0.0 mm 0.00 in0.0 mm
09:40 AM 78.7°F25.9°C 70.5°F21.4°C 76% Calm Calm 2.3 mph3.7 kmh 30.28 in1025.4 mb - 0.00 in0.0 mm 0.00 in0.0 mm
09:50 AM 78.8°F26.0°C 70.2°F21.2°C 75% 2.3 mph S3.7 kmh S 3.5 mph5.6 kmh 30.27 in1025.1 mb - 0.00 in0.0 mm 0.00 in0.0 mm
10:00 AM 78.8°F26.0°C 68.2°F20.1°C 70% 1.2 mph SE1.9 kmh SE 3.5 mph5.6 kmh 30.27 in1025.1 mb - 0.00 in0.0 mm 0.00 in0.0 mm
10:10 AM 79.3°F26.3°C 67.8°F19.9°C 68% 1.2 mph SW1.9 kmh SW 2.3 mph3.7 kmh 30.27 in1025.1 mb - 0.00 in0.0 mm 0.00 in0.0 mm
10:20 AM 80.3°F26.8°C 68.3°F20.2°C 67% 1.2 mph WSW1.9 kmh WSW 2.3 mph3.7 kmh 30.27 in1025.1 mb - 0.00 in0.0 mm 0.00 in0.0 mm
10:30 AM 80.4°F26.9°C 68.8°F20.4°C 68% 3.5 mph W5.6 kmh W 5.8 mph9.3 kmh 30.27 in1025.1 mb - 0.00 in0.0 mm 0.00 in0.0 mm
10:40 AM 79.7°F26.5°C 67.4°F19.7°C 66% 1.2 mph W1.9 kmh W 2.3 mph3.7 kmh 30.27 in1025.1 mb - 0.00 in0.0 mm 0.00 in0.0 mm
10:50 AM 80.5°F26.9°C 68.5°F20.3°C 67% 1.2 mph NW1.9 kmh NW 3.5 mph5.6 kmh 30.27 in1025.1 mb - 0.00 in0.0 mm 0.00 in0.0 mm
11:00 AM 80.9°F27.2°C 69.3°F20.7°C 68% 2.3 mph SW3.7 kmh SW 5.8 mph9.3 kmh 30.27 in1025.1 mb - 0.00 in0.0 mm 0.00 in0.0 mm
11:10 AM 80.5°F26.9°C 68.5°F20.3°C 67% 1.2 mph WSW1.9 kmh WSW 2.3 mph3.7 kmh 30.27 in1025.1 mb - 0.00 in0.0 mm 0.00 in0.0 mm
11:20 AM 80.5°F26.9°C 67.7°F19.8°C 65% 2.3 mph SSE3.7 kmh SSE 3.5 mph5.6 kmh 30.27 in1025.1 mb - 0.00 in0.0 mm 0.00 in0.0 mm
11:30 AM 80.7°F27.1°C 66.0°F18.9°C 61% 2.3 mph W3.7 kmh W 3.5 mph5.6 kmh 30.26 in1024.7 mb - 0.00 in0.0 mm 0.00 in0.0 mm
11:40 AM 81.5°F27.5°C 67.7°F19.8°C 63% 4.6 mph WSW7.4 kmh WSW 6.9 mph11.1 kmh 30.26 in1024.7 mb - 0.00 in0.0 mm 0.00 in0.0 mm
11:50 AM 82.2°F27.9°C 67.4°F19.7°C 61% 3.5 mph WSW5.6 kmh WSW 5.8 mph9.3 kmh 30.26 in1024.7 mb - 0.00 in0.0 mm 0.00 in0.0 mm
12:00 PM 82.8°F28.2°C 67.5°F19.7°C 60% 2.3 mph S3.7 kmh S 3.5 mph5.6 kmh 30.25 in1024.4 mb - 0.00 in0.0 mm 0.00 in0.0 mm
12:10 PM 82.6°F28.1°C 68.2°F20.1°C 62% 2.3 mph SW3.7 kmh SW 3.5 mph5.6 kmh 30.25 in1024.4 mb - 0.00 in0.0 mm 0.00 in0.0 mm
12:20 PM 82.9°F28.3°C 67.6°F19.8°C 60% 2.3 mph SW3.7 kmh SW 3.5 mph5.6 kmh 30.25 in1024.4 mb - 0.00 in0.0 mm 0.00 in0.0 mm
12:30 PM 82.9°F28.3°C 68.1°F20.1°C 61% 3.5 mph SW5.6 kmh SW 6.9 mph11.1 kmh 30.24 in1024.0 mb - 0.00 in0.0 mm 0.00 in0.0 mm
12:40 PM 83.6°F28.7°C 68.2°F20.1°C 60% 4.6 mph SSW7.4 kmh SSW 6.9 mph11.1 kmh 30.24 in1024.0 mb - 0.00 in0.0 mm 0.00 in0.0 mm
12:50 PM 83.8°F28.8°C 67.9°F19.9°C 59% 3.5 mph WSW5.6 kmh WSW 4.6 mph7.4 kmh 30.24 in1024.0 mb - 0.00 in0.0 mm 0.00 in0.0 mm
01:00 PM 84.5°F29.2°C 68.1°F20.1°C 58% 2.3 mph S3.7 kmh S 8.1 mph13.0 kmh 30.24 in1024.0 mb - 0.00 in0.0 mm 0.00 in0.0 mm
01:10 PM 83.7°F28.7°C 66.8°F19.3°C 57% 3.5 mph S5.6 kmh S 6.9 mph11.1 kmh 30.24 in1024.0 mb - 0.00 in0.0 mm 0.00 in0.0 mm
01:20 PM 84.3°F29.1°C 67.4°F19.7°C 57% 3.5 mph S5.6 kmh S 3.5 mph5.6 kmh 30.23 in1023.7 mb - 0.00 in0.0 mm 0.00 in0.0 mm
01:30 PM 84.8°F29.3°C 66.3°F19.1°C 54% 2.3 mph W3.7 kmh W 3.5 mph5.6 kmh 30.23 in1023.7 mb - 0.00 in0.0 mm 0.00 in0.0 mm
01:40 PM 85.3°F29.6°C 66.2°F19.0°C 53% 6.9 mph SW11.1 kmh SW 6.9 mph11.1 kmh 30.23 in1023.7 mb - 0.00 in0.0 mm 0.00 in0.0 mm
01:50 PM 85.4°F29.7°C 66.8°F19.3°C 54% 1.2 mph S1.9 kmh S 2.3 mph3.7 kmh 30.22 in1023.4 mb - 0.00 in0.0 mm 0.00 in0.0 mm
02:00 PM 86.0°F30.0°C 66.9°F19.4°C 53% 4.6 mph SW7.4 kmh SW 9.2 mph14.8 kmh 30.22 in1023.4 mb - 0.00 in0.0 mm 0.00 in0.0 mm
02:10 PM 85.8°F29.9°C 67.2°F19.6°C 54% 2.3 mph SSW3.7 kmh SSW 8.1 mph13.0 kmh 30.22 in1023.4 mb - 0.00 in0.0 mm 0.00 in0.0 mm
02:20 PM 85.9°F29.9°C 66.3°F19.1°C 52% 4.6 mph WSW7.4 kmh WSW 6.9 mph11.1 kmh 30.22 in1023.4 mb - 0.00 in0.0 mm 0.00 in0.0 mm
02:30 PM 86.9°F30.5°C 66.6°F19.2°C 51% 3.5 mph SW5.6 kmh SW 4.6 mph7.4 kmh 30.21 in1023.0 mb - 0.00 in0.0 mm 0.00 in0.0 mm
02:40 PM 87.3°F30.7°C 66.4°F19.1°C 50% 2.3 mph SSW3.7 kmh SSW 4.6 mph7.4 kmh 30.21 in1023.0 mb - 0.00 in0.0 mm 0.00 in0.0 mm
02:50 PM 87.3°F30.7°C 65.2°F18.4°C 48% 2.3 mph NW3.7 kmh NW 5.8 mph9.3 kmh 30.20 in1022.7 mb - 0.00 in0.0 mm 0.00 in0.0 mm
03:00 PM 87.2°F30.7°C 65.1°F18.4°C 48% 3.5 mph SW5.6 kmh SW 9.2 mph14.8 kmh 30.20 in1022.7 mb - 0.00 in0.0 mm 0.00 in0.0 mm
03:20 PM 87.4°F30.8°C 63.5°F17.5°C 45% 2.3 mph SE3.7 kmh SE 3.5 mph5.6 kmh 30.20 in1022.7 mb - 0.00 in0.0 mm 0.00 in0.0 mm
03:30 PM 87.2°F30.7°C 65.1°F18.4°C 48% 2.3 mph SW3.7 kmh SW 9.2 mph14.8 kmh 30.19 in1022.4 mb - 0.00 in0.0 mm 0.00 in0.0 mm
03:40 PM 87.8°F31.0°C 65.0°F18.3°C 47% 1.2 mph SW1.9 kmh SW 2.3 mph3.7 kmh 30.19 in1022.4 mb - 0.00 in0.0 mm 0.00 in0.0 mm
03:50 PM 87.5°F30.8°C 63.5°F17.5°C 45% 3.5 mph SW5.6 kmh SW 6.9 mph11.1 kmh 30.19 in1022.4 mb - 0.00 in0.0 mm 0.00 in0.0 mm
04:00 PM 87.3°F30.7°C 64.6°F18.1°C 47% 2.3 mph SW3.7 kmh SW 6.9 mph11.1 kmh 30.18 in1022.0 mb - 0.00 in0.0 mm 0.00 in0.0 mm
04:10 PM 87.2°F30.7°C 63.3°F17.4°C 45% 3.5 mph WSW5.6 kmh WSW 6.9 mph11.1 kmh 30.18 in1022.0 mb - 0.00 in0.0 mm 0.00 in0.0 mm
04:20 PM 86.6°F30.3°C 63.3°F17.4°C 46% 3.5 mph WSW5.6 kmh WSW 6.9 mph11.1 kmh 30.17 in1021.7 mb - 0.00 in0.0 mm 0.00 in0.0 mm
04:30 PM 86.5°F30.3°C 63.2°F17.3°C 46% 2.3 mph SE3.7 kmh SE 3.5 mph5.6 kmh 30.17 in1021.7 mb - 0.00 in0.0 mm 0.00 in0.0 mm
04:40 PM 86.6°F30.3°C 62.7°F17.1°C 45% 3.5 mph S5.6 kmh S 6.9 mph11.1 kmh 30.17 in1021.7 mb - 0.00 in0.0 mm 0.00 in0.0 mm
04:50 PM 86.1°F30.1°C 62.3°F16.8°C 45% 3.5 mph SW5.6 kmh SW 8.1 mph13.0 kmh 30.16 in1021.3 mb - 0.00 in0.0 mm 0.00 in0.0 mm
05:00 PM 85.9°F29.9°C 62.7°F17.1°C 46% 1.2 mph SW1.9 kmh SW 4.6 mph7.4 kmh 30.16 in1021.3 mb - 0.00 in0.0 mm 0.00 in0.0 mm
05:10 PM 85.8°F29.9°C 62.6°F17.0°C 46% 4.6 mph SW7.4 kmh SW 8.1 mph13.0 kmh 30.16 in1021.3 mb - 0.00 in0.0 mm 0.00 in0.0 mm
05:20 PM 85.6°F29.8°C 62.4°F16.9°C 46% 3.5 mph SW5.6 kmh SW 4.6 mph7.4 kmh 30.16 in1021.3 mb - 0.00 in0.0 mm 0.00 in0.0 mm
05:30 PM 85.5°F29.7°C 61.7°F16.5°C 45% 4.6 mph SSW7.4 kmh SSW 6.9 mph11.1 kmh 30.16 in1021.3 mb - 0.00 in0.0 mm 0.00 in0.0 mm
05:40 PM 85.4°F29.7°C 62.9°F17.2°C 47% 1.2 mph W1.9 kmh W 1.2 mph1.9 kmh 30.16 in1021.3 mb - 0.00 in0.0 mm 0.00 in0.0 mm
05:50 PM 85.2°F29.6°C 62.7°F17.1°C 47% 1.2 mph SW1.9 kmh SW 4.6 mph7.4 kmh 30.16 in1021.3 mb - 0.00 in0.0 mm 0.00 in0.0 mm
06:00 PM 85.0°F29.4°C 63.1°F17.3°C 48% 1.2 mph SW1.9 kmh SW 3.5 mph5.6 kmh 30.16 in1021.3 mb - 0.00 in0.0 mm 0.00 in0.0 mm
06:10 PM 84.5°F29.2°C 62.7°F17.1°C 48% 4.6 mph S7.4 kmh S 5.8 mph9.3 kmh 30.16 in1021.3 mb - 0.00 in0.0 mm 0.00 in0.0 mm
06:20 PM 83.8°F28.8°C 62.6°F17.0°C 49% 2.3 mph SW3.7 kmh SW 3.5 mph5.6 kmh 30.16 in1021.3 mb - 0.00 in0.0 mm 0.00 in0.0 mm
06:30 PM 83.4°F28.6°C 62.8°F17.1°C 50% 3.5 mph SW5.6 kmh SW 5.8 mph9.3 kmh 30.16 in1021.3 mb - 0.00 in0.0 mm 0.00 in0.0 mm
06:40 PM 82.9°F28.3°C 63.4°F17.4°C 52% 1.2 mph SW1.9 kmh SW 9.2 mph14.8 kmh 30.15 in1021.0 mb - 0.00 in0.0 mm 0.00 in0.0 mm
06:50 PM 82.0°F27.8°C 63.2°F17.3°C 53% 2.3 mph SW3.7 kmh SW 3.5 mph5.6 kmh 30.15 in1021.0 mb - 0.00 in0.0 mm 0.00 in0.0 mm
07:00 PM 80.8°F27.1°C 62.6°F17.0°C 54% 1.2 mph SW1.9 kmh SW 3.5 mph5.6 kmh 30.15 in1021.0 mb - 0.00 in0.0 mm 0.00 in0.0 mm
07:10 PM 79.8°F26.6°C 62.7°F17.1°C 56% 1.2 mph WSW1.9 kmh WSW 2.3 mph3.7 kmh 30.14 in1020.7 mb - 0.00 in0.0 mm 0.00 in0.0 mm
07:20 PM 79.0°F26.1°C 63.0°F17.2°C 58% 2.3 mph SW3.7 kmh SW 3.5 mph5.6 kmh 30.14 in1020.7 mb - 0.00 in0.0 mm 0.00 in0.0 mm
07:30 PM 78.4°F25.8°C 62.8°F17.1°C 59% Calm Calm 2.3 mph3.7 kmh 30.14 in1020.7 mb - 0.00 in0.0 mm 0.00 in0.0 mm
07:40 PM 77.8°F25.4°C 62.8°F17.1°C 60% 1.2 mph SW1.9 kmh SW 2.3 mph3.7 kmh 30.14 in1020.7 mb - 0.00 in0.0 mm 0.00 in0.0 mm
07:50 PM 77.3°F25.2°C 62.8°F17.1°C 61% Calm Calm -- 30.14 in1020.7 mb - 0.00 in0.0 mm 0.00 in0.0 mm
08:00 PM 76.8°F24.9°C 62.3°F16.8°C 61% Calm Calm 3.5 mph5.6 kmh 30.14 in1020.7 mb - 0.00 in0.0 mm 0.00 in0.0 mm
08:10 PM 76.4°F24.7°C 62.4°F16.9°C 62% 2.3 mph SSE3.7 kmh SSE 3.5 mph5.6 kmh 30.15 in1021.0 mb - 0.00 in0.0 mm 0.00 in0.0 mm
08:20 PM 76.0°F24.4°C 62.5°F16.9°C 63% Calm Calm -- 30.15 in1021.0 mb - 0.00 in0.0 mm 0.00 in0.0 mm
08:30 PM 75.7°F24.3°C 62.7°F17.1°C 64% Calm Calm 1.2 mph1.9 kmh 30.15 in1021.0 mb - 0.00 in0.0 mm 0.00 in0.0 mm
08:40 PM 75.2°F24.0°C 63.1°F17.3°C 66% 1.2 mph SW1.9 kmh SW 2.3 mph3.7 kmh 30.15 in1021.0 mb - 0.00 in0.0 mm 0.00 in0.0 mm
08:50 PM 74.9°F23.8°C 63.6°F17.6°C 68% Calm Calm 1.2 mph1.9 kmh 30.15 in1021.0 mb - 0.00 in0.0 mm 0.00 in0.0 mm
09:00 PM 74.6°F23.7°C 64.2°F17.9°C 70% Calm Calm 1.2 mph1.9 kmh 30.15 in1021.0 mb - 0.00 in0.0 mm 0.00 in0.0 mm
09:10 PM 74.3°F23.5°C 64.3°F17.9°C 71% 1.2 mph SW1.9 kmh SW 2.3 mph3.7 kmh 30.16 in1021.3 mb - 0.00 in0.0 mm 0.00 in0.0 mm
09:20 PM 74.1°F23.4°C 64.9°F18.3°C 73% 2.3 mph SW3.7 kmh SW 3.5 mph5.6 kmh 30.15 in1021.0 mb - 0.00 in0.0 mm 0.00 in0.0 mm
09:30 PM 73.8°F23.2°C 65.0°F18.3°C 74% Calm Calm 1.2 mph1.9 kmh 30.15 in1021.0 mb - 0.00 in0.0 mm 0.00 in0.0 mm
09:40 PM 73.7°F23.2°C 65.2°F18.4°C 75% Calm Calm -- 30.16 in1021.3 mb - 0.00 in0.0 mm 0.00 in0.0 mm
09:50 PM 73.5°F23.1°C 65.5°F18.6°C 76% Calm Calm 1.2 mph1.9 kmh 30.16 in1021.3 mb - 0.00 in0.0 mm 0.00 in0.0 mm
10:00 PM 73.3°F22.9°C 65.7°F18.7°C 77% Calm Calm 1.2 mph1.9 kmh 30.16 in1021.3 mb - 0.00 in0.0 mm 0.00 in0.0 mm
10:10 PM 73.1°F22.8°C 65.8°F18.8°C 78% Calm Calm -- 30.16 in1021.3 mb - 0.00 in0.0 mm 0.00 in0.0 mm
10:20 PM 72.9°F22.7°C 66.0°F18.9°C 79% Calm Calm -- 30.16 in1021.3 mb - 0.00 in0.0 mm 0.00 in0.0 mm
10:30 PM 72.7°F22.6°C 65.8°F18.8°C 79% Calm Calm -- 30.16 in1021.3 mb - 0.00 in0.0 mm 0.00 in0.0 mm
10:40 PM 72.6°F22.6°C 66.1°F18.9°C 80% Calm Calm -- 30.16 in1021.3 mb - 0.00 in0.0 mm 0.00 in0.0 mm
10:50 PM 72.5°F22.5°C 66.0°F18.9°C 80% Calm Calm -- 30.17 in1021.7 mb - 0.00 in0.0 mm 0.00 in0.0 mm
11:00 PM 72.6°F22.6°C 66.4°F19.1°C 81% Calm Calm 2.3 mph3.7 kmh 30.17 in1021.7 mb - 0.00 in0.0 mm 0.00 in0.0 mm
11:10 PM 72.6°F22.6°C 66.4°F19.1°C 81% Calm Calm -- 30.17 in1021.7 mb - 0.00 in0.0 mm 0.00 in0.0 mm
11:20 PM 72.7°F22.6°C 66.5°F19.2°C 81% Calm Calm 2.3 mph3.7 kmh 30.17 in1021.7 mb - 0.00 in0.0 mm 0.00 in0.0 mm
11:30 PM 72.6°F22.6°C 66.8°F19.3°C 82% Calm Calm -- 30.16 in1021.3 mb - 0.00 in0.0 mm 0.00 in0.0 mm
11:40 PM 72.4°F22.4°C 66.6°F19.2°C 82% 1.2 mph S1.9 kmh S 3.5 mph5.6 kmh 30.16 in1021.3 mb - 0.00 in0.0 mm 0.00 in0.0 mm
11:50 PM 72.4°F22.4°C 66.6°F19.2°C 82% Calm Calm -- 30.17 in1021.7 mb - 0.00 in0.0 mm 0.00 in0.0 mm